Řízení letového provozu České republiky
Letiste: LKKV Aktualizace: 27.03.2017 12:06:12  UTC
 METAR LKKV 27.03. 12:00 ...
METAR LKKV 271200Z 11008KT CAVOK 13/M07 Q1025 RMK REG QNH 1022=
 TAF LKKV 27.03. 11:00 ...
TAF LKKV 271100Z 2712/2818 VRB02KT CAVOK      TEMPO 2712/2719 14006KT      BECMG 2809/2812 24008KT=